createdAt,value
2022-11-02T00:00:53.968Z,9.46
2022-11-02T00:03:20.483Z,9.47
2022-11-02T00:05:46.951Z,9.43
2022-11-02T00:08:13.356Z,9.43
2022-11-02T00:10:39.785Z,9.40
2022-11-02T00:13:06.469Z,9.44
2022-11-02T00:15:36.089Z,9.46
2022-11-02T00:18:05.826Z,9.48
2022-11-02T00:20:32.265Z,9.44
2022-11-02T00:23:03.927Z,9.46
2022-11-02T00:25:30.582Z,9.49
2022-11-02T00:27:57.047Z,9.53
2022-11-02T00:30:23.461Z,9.49
2022-11-02T00:32:50.890Z,9.57
2022-11-02T00:35:17.244Z,9.57
2022-11-02T00:37:43.755Z,9.54
2022-11-02T00:40:11.230Z,9.56
2022-11-02T00:42:37.790Z,9.53
2022-11-02T00:45:05.028Z,9.53
2022-11-02T00:47:31.368Z,9.53
2022-11-02T00:49:57.728Z,9.58
2022-11-02T00:52:24.065Z,9.58
2022-11-02T00:54:50.479Z,9.60
2022-11-02T00:57:17.066Z,9.57
2022-11-02T00:59:43.500Z,9.48
2022-11-02T01:02:10.025Z,9.48
2022-11-02T01:04:37.038Z,9.47
2022-11-02T01:07:03.879Z,9.45
2022-11-02T01:09:30.280Z,9.47
2022-11-02T01:11:57.221Z,9.48
2022-11-02T01:14:23.859Z,9.47
2022-11-02T01:16:50.382Z,9.47
2022-11-02T01:19:16.796Z,9.43
2022-11-02T01:21:43.155Z,9.43
2022-11-02T01:24:09.630Z,9.43
2022-11-02T01:26:36.036Z,9.45
2022-11-02T01:29:02.419Z,9.47
2022-11-02T01:31:28.776Z,9.51
2022-11-02T01:33:55.111Z,9.51
2022-11-02T01:38:49.393Z,9.50
2022-11-02T01:41:17.620Z,9.54
2022-11-02T01:43:46.762Z,9.53
2022-11-02T01:46:19.960Z,9.51
2022-11-02T01:48:52.842Z,9.55
2022-11-02T01:51:32.614Z,9.54
2022-11-02T01:54:05.309Z,9.56
2022-11-02T01:56:33.459Z,9.57
2022-11-02T01:59:04.092Z,9.58
2022-11-02T02:01:31.430Z,9.57
2022-11-02T02:03:58.252Z,9.54
2022-11-02T02:06:28.211Z,9.47
2022-11-02T02:08:58.880Z,9.47
2022-11-02T02:11:31.076Z,9.49
2022-11-02T02:14:05.243Z,9.43
2022-11-02T02:16:46.212Z,9.38
2022-11-02T02:19:35.805Z,9.45
2022-11-02T02:22:23.009Z,9.45
2022-11-02T02:25:14.685Z,9.48
2022-11-02T02:27:59.315Z,9.45
2022-11-02T02:30:26.149Z,9.39
2022-11-02T02:33:05.630Z,9.35
2022-11-02T02:35:49.266Z,9.31
2022-11-02T02:38:27.453Z,9.24
2022-11-02T02:41:09.757Z,9.09
2022-11-02T02:43:46.628Z,8.92
2022-11-02T02:46:17.128Z,8.84
2022-11-02T02:48:45.946Z,8.76
2022-11-02T02:51:20.397Z,8.68
2022-11-02T02:53:52.599Z,8.57
2022-11-02T02:56:23.257Z,8.52
2022-11-02T02:58:58.345Z,8.56
2022-11-02T03:01:26.587Z,8.50
2022-11-02T03:03:53.190Z,8.43
2022-11-02T03:06:30.814Z,8.41
2022-11-02T03:09:49.646Z,8.39
2022-11-02T03:12:47.129Z,8.31
2022-11-02T03:15:36.657Z,8.26
2022-11-02T03:18:03.610Z,8.30
2022-11-02T03:20:39.925Z,8.40
2022-11-02T03:23:20.440Z,8.43
2022-11-02T03:26:13.455Z,8.54
2022-11-02T03:28:56.444Z,8.57
2022-11-02T03:31:44.801Z,8.60
2022-11-02T03:34:29.989Z,8.65
2022-11-02T03:37:07.343Z,8.63
2022-11-02T03:39:41.647Z,8.61
2022-11-02T03:42:12.478Z,8.72
2022-11-02T03:44:40.156Z,8.73
2022-11-02T03:47:11.292Z,8.73
2022-11-02T03:49:39.611Z,8.73
2022-11-02T03:52:10.257Z,8.70
2022-11-02T03:54:54.118Z,8.68
2022-11-02T03:57:27.970Z,8.70
2022-11-02T04:00:06.442Z,8.70
2022-11-02T04:02:37.624Z,8.72
2022-11-02T04:05:04.499Z,8.71
2022-11-02T04:07:58.361Z,8.73
2022-11-02T04:10:25.919Z,8.76
2022-11-02T04:13:10.756Z,8.73
2022-11-02T04:15:37.194Z,8.70
2022-11-02T04:18:22.421Z,8.73
2022-11-02T04:20:52.255Z,8.77
2022-11-02T04:23:38.226Z,8.64
2022-11-02T04:26:05.450Z,8.70
2022-11-02T04:28:31.832Z,8.72
2022-11-02T04:30:59.914Z,8.73
2022-11-02T04:33:35.624Z,8.73
2022-11-02T04:36:04.096Z,8.69
2022-11-02T04:38:43.150Z,8.62
2022-11-02T04:41:30.762Z,8.49
2022-11-02T04:43:57.134Z,8.45
2022-11-02T04:46:25.511Z,8.45
2022-11-02T04:48:52.258Z,8.42
2022-11-02T04:51:20.593Z,8.42
2022-11-02T04:53:51.538Z,8.46
2022-11-02T04:56:18.007Z,8.41
2022-11-02T04:58:48.167Z,8.40
2022-11-02T05:01:15.836Z,8.37
2022-11-02T05:03:42.370Z,8.29
2022-11-02T05:06:12.313Z,8.27
2022-11-02T05:08:39.294Z,8.26
2022-11-02T05:11:05.973Z,8.13
2022-11-02T05:13:32.911Z,8.09
2022-11-02T05:16:00.169Z,8.08
2022-11-02T05:18:28.639Z,8.15
2022-11-02T05:20:57.919Z,8.14
2022-11-02T05:23:24.789Z,8.20
2022-11-02T05:25:58.750Z,8.16
2022-11-02T05:28:26.340Z,8.11
2022-11-02T05:30:54.315Z,8.02
2022-11-02T05:33:22.342Z,7.95
2022-11-02T05:35:50.912Z,7.82
2022-11-02T05:38:17.262Z,7.81
2022-11-02T05:40:43.658Z,7.72
2022-11-02T05:43:10.512Z,7.67
2022-11-02T05:45:37.154Z,7.62
2022-11-02T05:48:06.644Z,7.52
2022-11-02T05:50:33.518Z,7.41
2022-11-02T05:52:59.887Z,7.34
2022-11-02T05:55:26.394Z,7.34
2022-11-02T05:57:55.010Z,7.27
2022-11-02T06:00:22.749Z,7.19
2022-11-02T06:02:49.094Z,7.17
2022-11-02T06:05:15.671Z,7.17
2022-11-02T06:07:42.080Z,7.16
2022-11-02T06:10:08.602Z,7.15
2022-11-02T06:12:35.070Z,7.14
2022-11-02T06:15:01.478Z,7.14
2022-11-02T06:17:27.932Z,7.19
2022-11-02T06:19:54.275Z,7.17
2022-11-02T06:22:20.702Z,7.18
2022-11-02T06:24:47.138Z,7.15
2022-11-02T06:27:13.617Z,7.17
2022-11-02T06:29:39.938Z,7.14
2022-11-02T06:32:06.314Z,7.17
2022-11-02T06:34:32.661Z,7.25
2022-11-02T06:36:59.043Z,7.27
2022-11-02T06:39:25.599Z,7.33
2022-11-02T06:41:52.045Z,7.36
2022-11-02T06:44:18.474Z,7.32
2022-11-02T06:46:44.852Z,7.35
2022-11-02T06:49:11.206Z,7.43
2022-11-02T06:51:37.565Z,7.51
2022-11-02T06:54:08.435Z,7.66
2022-11-02T06:56:35.352Z,7.75
2022-11-02T06:59:01.700Z,7.78
2022-11-02T07:01:28.315Z,7.81
2022-11-02T07:03:54.878Z,7.87
2022-11-02T07:06:21.467Z,8.34
2022-11-02T07:08:47.820Z,9.52
2022-11-02T07:11:16.043Z,10.42
2022-11-02T07:13:42.679Z,11.45
2022-11-02T07:16:09.160Z,11.73
2022-11-02T07:18:35.687Z,11.18
2022-11-02T07:21:02.530Z,10.72
2022-11-02T07:23:29.155Z,11.07
2022-11-02T07:25:55.514Z,11.42
2022-11-02T07:28:22.035Z,11.64
2022-11-02T07:30:49.242Z,11.22
2022-11-02T07:33:15.674Z,10.77
2022-11-02T07:35:42.351Z,10.59
2022-11-02T07:38:09.738Z,10.80
2022-11-02T07:40:36.584Z,11.26
2022-11-02T07:43:04.307Z,11.57
2022-11-02T07:45:32.139Z,12.19
2022-11-02T07:47:58.531Z,12.07
2022-11-02T07:50:26.992Z,12.66
2022-11-02T07:52:55.711Z,13.07
2022-11-02T07:55:27.606Z,13.50
2022-11-02T07:57:54.918Z,13.74
2022-11-02T08:00:21.626Z,14.00
2022-11-02T08:02:48.235Z,13.90
2022-11-02T08:05:14.915Z,14.17
2022-11-02T08:07:41.245Z,13.51
2022-11-02T08:10:08.058Z,14.27
2022-11-02T08:12:34.399Z,14.96
2022-11-02T08:15:06.268Z,14.92
2022-11-02T08:17:33.817Z,14.63
2022-11-02T08:20:00.200Z,14.31
2022-11-02T08:22:26.526Z,14.62
2022-11-02T08:24:52.960Z,14.83
2022-11-02T08:27:19.314Z,14.07
2022-11-02T08:29:45.708Z,13.77
2022-11-02T08:32:12.794Z,14.46
2022-11-02T08:34:39.140Z,14.98
2022-11-02T08:37:07.345Z,15.12
2022-11-02T08:39:33.778Z,15.56
2022-11-02T08:42:00.167Z,15.99
2022-11-02T08:44:26.504Z,16.49
2022-11-02T08:49:24.303Z,16.36
2022-11-02T08:51:50.810Z,16.88
2022-11-02T08:54:17.351Z,16.88
2022-11-02T08:56:43.743Z,16.99
2022-11-02T08:59:10.387Z,16.46
2022-11-02T09:01:37.014Z,16.07
2022-11-02T09:04:03.440Z,16.42
2022-11-02T09:06:29.807Z,17.25
2022-11-02T09:08:58.052Z,16.58
2022-11-02T09:11:26.009Z,17.15
2022-11-02T09:13:56.636Z,17.29
2022-11-02T09:16:23.518Z,17.74
2022-11-02T09:18:49.931Z,17.99
2022-11-02T09:21:16.271Z,18.35
2022-11-02T09:23:42.781Z,18.81
2022-11-02T09:26:09.118Z,18.11
2022-11-02T09:28:35.453Z,19.31
2022-11-02T09:31:02.425Z,19.77
2022-11-02T09:33:30.202Z,20.02
2022-11-02T09:35:56.599Z,20.42
2022-11-02T09:38:22.985Z,19.97
2022-11-02T09:40:58.398Z,20.31
2022-11-02T09:43:33.828Z,21.72
2022-11-02T09:46:04.710Z,22.30
2022-11-02T09:48:45.335Z,23.31
2022-11-02T09:51:15.258Z,23.34
2022-11-02T09:53:45.320Z,23.85
2022-11-02T09:56:14.794Z,24.99
2022-11-02T09:58:44.330Z,25.21
2022-11-02T10:01:24.015Z,24.09
2022-11-02T10:04:05.627Z,23.38
2022-11-02T10:06:37.517Z,20.07
2022-11-02T10:09:10.545Z,19.12
2022-11-02T10:11:48.819Z,19.00
2022-11-02T10:14:23.932Z,19.98
2022-11-02T10:17:10.748Z,22.18
2022-11-02T10:19:44.609Z,22.46
2022-11-02T10:22:15.237Z,22.49
2022-11-02T10:24:43.334Z,22.36
2022-11-02T10:27:18.510Z,22.07
2022-11-02T10:29:57.122Z,21.13
2022-11-02T10:32:23.756Z,20.31
2022-11-02T10:34:58.483Z,19.02
2022-11-02T10:37:58.577Z,18.26
2022-11-02T10:40:42.826Z,17.81
2022-11-02T10:43:24.540Z,17.31
2022-11-02T10:46:13.834Z,16.97
2022-11-02T10:49:02.338Z,16.38
2022-11-02T10:51:29.605Z,15.87
2022-11-02T10:53:56.841Z,15.41
2022-11-02T10:56:33.450Z,15.15
2022-11-02T10:59:02.408Z,14.82
2022-11-02T11:01:31.737Z,14.62
2022-11-02T11:04:19.985Z,14.64
2022-11-02T11:06:46.875Z,14.70
2022-11-02T11:09:24.835Z,14.47
2022-11-02T11:12:06.903Z,15.51
2022-11-02T11:20:38.160Z,19.42
2022-11-02T11:23:27.741Z,20.18
2022-11-02T11:26:06.206Z,21.74
2022-11-02T11:28:52.259Z,21.00
2022-11-02T11:31:19.285Z,19.10
2022-11-02T11:33:51.680Z,17.76
2022-11-02T11:38:55.806Z,16.33
2022-11-02T11:41:23.170Z,16.11
2022-11-02T11:43:51.853Z,17.86
2022-11-02T11:46:20.905Z,18.22
2022-11-02T11:48:56.040Z,18.55
2022-11-02T11:51:27.645Z,18.51
2022-11-02T11:54:21.436Z,19.59
2022-11-02T11:56:49.077Z,20.41
2022-11-02T11:59:43.571Z,20.76
2022-11-02T12:02:43.952Z,21.62
2022-11-02T12:05:15.016Z,19.81
2022-11-02T12:08:06.971Z,19.14
2022-11-02T12:10:47.246Z,19.07
2022-11-02T12:13:38.251Z,20.14
2022-11-02T12:16:21.595Z,20.94
2022-11-02T12:21:43.101Z,20.85
2022-11-02T12:24:31.376Z,20.45
2022-11-02T12:27:35.683Z,21.33
2022-11-02T12:30:15.245Z,20.66
2022-11-02T12:32:54.685Z,19.07
2022-11-02T12:35:45.257Z,19.08
2022-11-02T12:38:49.885Z,19.70
2022-11-02T12:41:16.158Z,18.33
2022-11-02T12:43:53.784Z,17.66
2022-11-02T12:46:49.101Z,17.18
2022-11-02T12:49:27.621Z,17.31
2022-11-02T12:52:06.625Z,17.09
2022-11-02T12:54:42.595Z,16.07
2022-11-02T12:57:15.365Z,15.85
2022-11-02T12:59:43.946Z,15.84
2022-11-02T13:02:17.570Z,15.93
2022-11-02T13:04:59.712Z,15.57
2022-11-02T13:07:38.547Z,15.33
2022-11-02T13:10:15.758Z,15.08
2022-11-02T13:12:44.474Z,14.97
2022-11-02T13:15:17.425Z,14.97
2022-11-02T13:17:47.925Z,14.97
2022-11-02T13:20:26.072Z,15.21
2022-11-02T13:23:05.781Z,15.25
2022-11-02T13:25:40.606Z,15.78
2022-11-02T13:28:24.593Z,17.63
2022-11-02T13:30:52.230Z,18.69
2022-11-02T13:33:34.609Z,19.17
2022-11-02T13:36:01.011Z,19.06
2022-11-02T13:38:47.691Z,19.59
2022-11-02T13:41:48.392Z,18.57
2022-11-02T13:44:36.874Z,18.26
2022-11-02T13:47:22.215Z,19.78
2022-11-02T13:49:51.862Z,20.18
2022-11-02T13:52:30.060Z,20.08
2022-11-02T13:55:02.520Z,19.88
2022-11-02T13:57:37.353Z,21.49
2022-11-02T14:00:25.799Z,22.43
2022-11-02T14:03:18.384Z,22.17
2022-11-02T14:05:52.871Z,22.45
2022-11-02T14:08:28.940Z,22.76
2022-11-02T14:11:09.191Z,22.19
2022-11-02T14:13:53.904Z,22.62
2022-11-02T14:16:42.075Z,23.56
2022-11-02T14:19:19.389Z,24.04
2022-11-02T14:22:09.914Z,24.06
2022-11-02T14:24:36.380Z,24.67
2022-11-02T14:27:11.551Z,24.34
2022-11-02T14:29:38.710Z,24.00
2022-11-02T14:32:40.863Z,22.66
2022-11-02T14:35:16.486Z,22.00
2022-11-02T14:38:16.338Z,21.71
2022-11-02T14:41:11.102Z,20.87
2022-11-02T14:44:03.676Z,21.03
2022-11-02T14:46:57.338Z,19.97
2022-11-02T14:49:30.812Z,19.21
2022-11-02T14:52:03.857Z,19.02
2022-11-02T14:54:34.980Z,18.50
2022-11-02T14:57:24.746Z,18.18
2022-11-02T14:59:55.174Z,17.70
2022-11-02T15:02:29.674Z,17.25
2022-11-02T15:04:59.058Z,16.56
2022-11-02T15:07:40.177Z,16.35
2022-11-02T15:10:15.472Z,15.90
2022-11-02T15:12:49.050Z,15.26
2022-11-02T15:15:35.191Z,14.63
2022-11-02T15:18:24.959Z,14.31
2022-11-02T15:21:12.900Z,13.80
2022-11-02T15:23:42.319Z,13.52
2022-11-02T15:26:14.593Z,13.26
2022-11-02T15:28:44.449Z,12.98
2022-11-02T15:31:26.145Z,12.73
2022-11-02T15:34:02.839Z,12.55
2022-11-02T15:36:36.411Z,12.33
2022-11-02T15:39:08.743Z,12.09
2022-11-02T15:41:42.008Z,11.87
2022-11-02T15:44:32.595Z,11.69
2022-11-02T15:47:34.409Z,11.46
2022-11-02T15:50:08.164Z,11.28
2022-11-02T15:53:01.565Z,11.11
2022-11-02T15:55:42.651Z,10.96
2022-11-02T15:58:40.800Z,10.79
2022-11-02T16:01:25.322Z,10.69
2022-11-02T16:04:03.883Z,10.60
2022-11-02T16:06:34.857Z,10.56
2022-11-02T16:09:02.594Z,10.50
2022-11-02T16:11:29.440Z,10.42
2022-11-02T16:14:16.995Z,10.34
2022-11-02T16:16:50.331Z,10.24
2022-11-02T16:19:21.137Z,10.18
2022-11-02T16:21:49.442Z,10.11
2022-11-02T16:24:17.244Z,10.09
2022-11-02T16:26:46.341Z,9.96
2022-11-02T16:29:26.671Z,9.86
2022-11-02T16:31:53.087Z,9.76
2022-11-02T16:34:22.715Z,9.67
2022-11-02T16:36:49.343Z,9.59
2022-11-02T16:39:27.760Z,9.59
2022-11-02T16:41:58.036Z,9.63
2022-11-02T16:44:27.789Z,9.69
2022-11-02T16:47:09.886Z,9.63
2022-11-02T16:49:51.553Z,9.52
2022-11-02T16:52:21.609Z,9.44
2022-11-02T16:54:49.327Z,9.34
2022-11-02T16:57:25.092Z,9.21
2022-11-02T17:00:00.226Z,9.12
2022-11-02T17:02:41.551Z,9.04
2022-11-02T17:05:23.502Z,9.01
2022-11-02T17:07:52.893Z,8.94
2022-11-02T17:10:25.198Z,8.85
2022-11-02T17:12:51.686Z,8.77
2022-11-02T17:15:23.464Z,8.63
2022-11-02T17:18:16.454Z,8.61
2022-11-02T17:20:42.771Z,8.59
2022-11-02T17:23:33.274Z,8.60
2022-11-02T17:26:18.411Z,8.37
2022-11-02T17:28:46.829Z,8.21
2022-11-02T17:31:34.699Z,8.12
2022-11-02T17:34:17.412Z,8.05
2022-11-02T17:36:49.119Z,8.11
2022-11-02T17:39:17.084Z,8.10
2022-11-02T17:42:03.168Z,8.06
2022-11-02T17:44:29.606Z,8.01
2022-11-02T17:46:56.254Z,8.05
2022-11-02T17:49:22.717Z,7.92
2022-11-02T17:51:49.239Z,7.83
2022-11-02T17:54:15.772Z,7.83
2022-11-02T17:56:42.142Z,7.79
2022-11-02T17:59:08.551Z,7.76
2022-11-02T18:01:35.356Z,7.77
2022-11-02T18:04:02.849Z,7.79
2022-11-02T18:06:29.720Z,7.73
2022-11-02T18:09:10.905Z,7.70
2022-11-02T18:11:37.458Z,7.68
2022-11-02T18:14:05.198Z,7.62
2022-11-02T18:16:32.719Z,7.63
2022-11-02T18:18:59.132Z,7.65
2022-11-02T18:21:25.668Z,7.61
2022-11-02T18:23:52.081Z,7.59
2022-11-02T18:26:18.648Z,7.54
2022-11-02T18:28:45.119Z,7.39
2022-11-02T18:31:16.107Z,7.26
2022-11-02T18:33:43.374Z,7.19
2022-11-02T18:36:10.777Z,7.12
2022-11-02T18:38:38.915Z,7.06
2022-11-02T18:41:29.066Z,7.15
2022-11-02T18:44:14.642Z,7.29
2022-11-02T18:46:42.944Z,7.32
2022-11-02T18:49:09.700Z,7.40
2022-11-02T18:51:37.210Z,7.43
2022-11-02T18:54:07.060Z,7.42
2022-11-02T18:56:35.838Z,7.27
2022-11-02T18:59:03.457Z,7.19
2022-11-02T19:01:31.358Z,7.08
2022-11-02T19:04:02.064Z,7.00
2022-11-02T19:06:50.619Z,6.93
2022-11-02T19:09:18.888Z,6.87
2022-11-02T19:12:00.742Z,6.87
2022-11-02T19:14:30.039Z,6.91
2022-11-02T19:16:56.614Z,6.90
2022-11-02T19:19:24.155Z,6.87
2022-11-02T19:21:50.980Z,6.83
2022-11-02T19:24:20.824Z,6.86
2022-11-02T19:26:49.927Z,6.79
2022-11-02T19:29:16.749Z,6.75
2022-11-02T19:31:43.371Z,6.71
2022-11-02T19:34:12.083Z,6.76
2022-11-02T19:36:39.314Z,6.60
2022-11-02T19:39:09.129Z,6.41
2022-11-02T19:41:37.561Z,6.28
2022-11-02T19:44:04.618Z,6.16
2022-11-02T19:46:31.345Z,6.11
2022-11-02T19:48:58.259Z,6.03
2022-11-02T19:51:27.323Z,5.86
2022-11-02T19:53:56.436Z,5.83
2022-11-02T19:56:23.185Z,5.88
2022-11-02T19:58:51.621Z,5.99
2022-11-02T20:01:30.348Z,5.92
2022-11-02T20:03:57.810Z,5.90
2022-11-02T20:06:27.466Z,5.82
2022-11-02T20:09:01.675Z,5.94
2022-11-02T20:11:29.062Z,5.94
2022-11-02T20:14:01.253Z,5.95
2022-11-02T20:16:28.316Z,6.01
2022-11-02T20:18:55.938Z,6.02
2022-11-02T20:21:34.425Z,6.06
2022-11-02T20:24:04.154Z,6.01
2022-11-02T20:26:35.535Z,5.97
2022-11-02T20:29:04.882Z,5.98
2022-11-02T20:31:39.671Z,5.89
2022-11-02T20:34:08.168Z,5.86
2022-11-02T20:36:36.019Z,5.91
2022-11-02T20:39:04.785Z,5.80
2022-11-02T20:41:32.600Z,5.82
2022-11-02T20:43:59.618Z,5.86
2022-11-02T20:46:47.392Z,6.07
2022-11-02T20:49:21.568Z,6.02
2022-11-02T20:51:54.846Z,6.06
2022-11-02T20:54:22.673Z,6.15
2022-11-02T20:56:50.279Z,6.27
2022-11-02T20:59:18.948Z,6.38
2022-11-02T21:01:49.349Z,6.40
2022-11-02T21:04:20.729Z,6.57
2022-11-02T21:06:48.990Z,6.51
2022-11-02T21:09:17.285Z,6.54
2022-11-02T21:12:02.690Z,6.63
2022-11-02T21:14:29.383Z,6.69
2022-11-02T21:16:55.920Z,6.84
2022-11-02T21:19:22.432Z,6.92
2022-11-02T21:21:48.910Z,7.04
2022-11-02T21:24:15.614Z,7.17
2022-11-02T21:26:43.139Z,7.18
2022-11-02T21:29:09.823Z,7.31
2022-11-02T21:31:36.804Z,7.12
2022-11-02T21:34:05.625Z,7.14
2022-11-02T21:36:33.052Z,7.19
2022-11-02T21:39:00.544Z,7.19
2022-11-02T21:41:29.293Z,7.25
2022-11-02T21:43:56.156Z,7.34
2022-11-02T21:46:25.524Z,7.24
2022-11-02T21:48:52.361Z,7.25
2022-11-02T21:51:21.621Z,7.16
2022-11-02T21:53:50.044Z,7.26
2022-11-02T21:56:32.922Z,7.29
2022-11-02T21:58:59.527Z,7.31
2022-11-02T22:01:48.428Z,7.31
2022-11-02T22:04:28.919Z,7.34
2022-11-02T22:06:55.995Z,7.27
2022-11-02T22:09:22.484Z,7.26
2022-11-02T22:12:09.179Z,7.24
2022-11-02T22:14:36.930Z,7.27
2022-11-02T22:17:11.339Z,7.34
2022-11-02T22:19:49.166Z,7.39
2022-11-02T22:22:15.508Z,7.44
2022-11-02T22:24:44.720Z,7.50
2022-11-02T22:27:11.410Z,7.47
2022-11-02T22:29:37.745Z,7.37
2022-11-02T22:32:04.561Z,7.39
2022-11-02T22:34:31.043Z,7.46
2022-11-02T22:37:17.361Z,7.42
2022-11-02T22:39:43.709Z,7.34
2022-11-02T22:42:10.102Z,7.34
2022-11-02T22:44:36.542Z,7.36
2022-11-02T22:47:03.023Z,7.36
2022-11-02T22:49:29.436Z,7.37
2022-11-02T22:51:55.759Z,7.42
2022-11-02T22:54:22.095Z,7.35
2022-11-02T22:56:48.971Z,7.34
2022-11-02T22:59:15.944Z,7.30
2022-11-02T23:01:42.764Z,7.18
2022-11-02T23:04:11.372Z,7.15
2022-11-02T23:06:37.784Z,7.18
2022-11-02T23:09:05.147Z,7.13
2022-11-02T23:11:36.203Z,7.11
2022-11-02T23:14:04.270Z,7.01
2022-11-02T23:16:37.390Z,6.84
2022-11-02T23:19:29.161Z,7.00
2022-11-02T23:22:24.983Z,7.04
2022-11-02T23:25:12.825Z,6.96
2022-11-02T23:28:16.067Z,7.02
2022-11-02T23:31:01.889Z,7.04
2022-11-02T23:33:32.130Z,7.08
2022-11-02T23:36:10.902Z,7.18
2022-11-02T23:38:59.365Z,7.21
2022-11-02T23:41:26.356Z,7.24
2022-11-02T23:44:11.142Z,7.24
2022-11-02T23:46:45.099Z,7.27
2022-11-02T23:49:13.616Z,7.36
2022-11-02T23:51:58.884Z,7.39
2022-11-02T23:54:44.274Z,7.42
2022-11-02T23:57:11.090Z,7.35
2022-11-02T23:59:37.425Z,7.47
